Hannover, Germany

3:59 PM CEST on September 02, 2014 (GMT +0200)
Hannover | Change Station
CLOSE
Current Station
Personal Weather Station
Location: Wedemark,
Elevation: 210 ft
Nearby Weather Stations

Elev 210 ft 52.52 °N, 9.75 °E | Updated 59 minutes ago

Mostly Cloudy
Mostly Cloudy
63.5 °F
Feels Like 63.5 °F
N
0.8
Wind Variable Wind from NNE
Gusts 4.0 mph

Today
High -- | Low -- °F
--% Chance of Precip.
Yesterday
High -- | Low -- °F
Precip. -- in
6:33 AM 8:07 PM
First Quarter, 51% visible
Pressure 30.21 in
Visibility 6.2 miles
Clouds Few 1400 ft
Mostly Cloudy 2100 ft
Dew Point 61 °F
Humidity 91%
Rainfall 0.04 in
Snow Depth Not available.
UV 0.0 out of 12
Pollen Not available.
Air Quality Not available.
Flu Activity Not available.
METAR EDDV 021350Z 05006KT 9999 FEW014 BKN021 17/14 Q1023 NOSIG

More Conditions Fewer Conditions

Pressure 30.21 in
Visibility 6.2 miles
Clouds Few 1400 ft
Mostly Cloudy 2100 ft
Dew Point 61 °F
Humidity 91%
Rainfall 0.04 in
Snow Depth Not available.
UV 0.0 out of 12
Pollen Not available.
Air Quality Not available.
Flu Activity Not available.
METAR EDDV 021350Z 05006KT 9999 FEW014 BKN021 17/14 Q1023 NOSIG

More Conditions Fewer Conditions

10-Day Weather Forecast

Almanac

Astronomy

Sep. 02, 2014 Rise Set
Actual Time 6:33 AM CEST 8:07 PM CEST
Civil Twilight 5:57 AM CEST 8:42 PM CEST
Nautical Twilight 5:13 AM CEST 9:26 PM CEST
Astronomical Twilight 4:24 AM CEST 10:14 PM CEST
Moon 2:56 PM CEST 11:50 PM CEST
Length of Visible Light 14h 45m
Length of Day
13h 33m
Tomorrow will be 3m 59s shorter.
First Quarter, 51% of the Moon is Illuminated
Today
First Quarter
Sep 8
Full
Sep 15
Last Quarter
Sep 24
New
Oct 1
First Quarter

Yesterday's Extremes

Country Highs Country Lows

Community

WunderPhotos

Upload Photos

1,749,656 photos uploaded!

Nearby

Snow Depth

Not available.

Earthquake Activity

City Distance Mag. Time & Date
No recent earthquake activity has been reported nearby.
Minimum magnitude displayed is 2.5.

Coastal Water Temperatures

Place Temperature
No Stations Reporting

Nearby Weather Stations